Time;durP1;ratioP1;P1;durP2;ratioP2;P2;SDS_P1;SDS_P2;PMS_P1;PMS_P2;Temp;Humidity;BMP_temperature;BMP_pressure;BME280_temperature;BME280_humidity;BME280_pressure;Samples;Min_cycle;Max_cycle;Signal;HPM_P1;HPM_P2
2020/12/01 00:00:15;;;;;;;49.10;28.63;;;;;;;;;;4436072;32;20558;-57
2020/12/01 00:02:40;;;;;;;49.13;28.40;;;;;;;;;;4434741;32;20263;-57
2020/12/01 00:05:06;;;;;;;43.17;26.37;;;;;;;;;;4434363;32;20674;-58
2020/12/01 00:07:32;;;;;;;47.70;28.07;;;;;;;;;;4434763;32;20277;-58
2020/12/01 00:09:57;;;;;;;50.23;28.67;;;;;;;;;;4434609;32;20224;-58
2020/12/01 00:12:23;;;;;;;56.47;29.70;;;;;;;;;;4438708;32;20271;-57
2020/12/01 00:14:48;;;;;;;42.30;26.03;;;;;;;;;;4434350;32;20356;-57
2020/12/01 00:17:14;;;;;;;40.87;24.47;;;;;;;;;;4449326;32;20641;-58
2020/12/01 00:19:39;;;;;;;43.07;23.90;;;;;;;;;;4421753;32;20284;-58
2020/12/01 00:22:04;;;;;;;44.33;25.90;;;;;;;;;;4448231;32;20228;-57
2020/12/01 00:24:30;;;;;;;39.67;24.63;;;;;;;;;;4435149;32;20307;-57
2020/12/01 00:26:56;;;;;;;42.70;26.40;;;;;;;;;;4447651;32;20232;-56
2020/12/01 00:29:21;;;;;;;62.50;34.13;;;;;;;;;;4450069;32;20287;-57
2020/12/01 00:31:47;;;;;;;42.37;25.10;;;;;;;;;;4436198;32;20283;-56
2020/12/01 00:34:14;;;;;;;49.23;27.77;;;;;;;;;;4434751;32;20399;-56
2020/12/01 00:36:40;;;;;;;40.83;25.33;;;;;;;;;;4437354;32;20247;-56
2020/12/01 00:39:07;;;;;;;40.47;24.00;;;;;;;;;;4434108;32;20641;-57
2020/12/01 00:41:32;;;;;;;36.33;23.20;;;;;;;;;;4435178;32;20236;-57
2020/12/01 00:43:58;;;;;;;40.93;23.20;;;;;;;;;;4434390;32;20322;-56
2020/12/01 00:46:23;;;;;;;42.67;23.20;;;;;;;;;;4433596;32;20252;-56
2020/12/01 00:48:49;;;;;;;44.77;24.90;;;;;;;;;;4434091;32;20715;-60
2020/12/01 00:51:14;;;;;;;46.73;26.20;;;;;;;;;;4438673;32;20212;-60
2020/12/01 00:53:40;;;;;;;45.50;19.23;;;;;;;;;;4434413;32;20343;-60
2020/12/01 00:56:05;;;;;;;37.27;20.70;;;;;;;;;;4441719;32;20681;-60
2020/12/01 00:58:31;;;;;;;36.40;22.47;;;;;;;;;;4449640;32;20296;-61
2020/12/01 01:00:56;;;;;;;34.60;21.80;;;;;;;;;;4437687;32;20239;-59
2020/12/01 01:03:22;;;;;;;37.90;19.60;;;;;;;;;;4433859;32;20692;-59
2020/12/01 01:05:50;;;;;;;30.57;19.60;;;;;;;;;;4424986;32;20307;-60
2020/12/01 01:08:15;;;;;;;35.23;20.07;;;;;;;;;;4449676;32;20213;-61
2020/12/01 01:10:41;;;;;;;36.80;20.47;;;;;;;;;;4443177;32;20597;-60
2020/12/01 01:13:06;;;;;;;33.13;19.60;;;;;;;;;;4433357;32;20346;-58
2020/12/01 01:15:34;;;;;;;29.03;19.20;;;;;;;;;;4437196;32;20232;-60
2020/12/01 01:18:01;;;;;;;28.83;17.80;;;;;;;;;;4423303;32;20665;-59
2020/12/01 01:20:27;;;;;;;31.57;18.70;;;;;;;;;;4436698;32;20228;-60
2020/12/01 01:22:54;;;;;;;29.93;18.90;;;;;;;;;;4449501;32;20204;-59
2020/12/01 01:25:20;;;;;;;32.40;18.87;;;;;;;;;;4441175;32;20594;-59
2020/12/01 01:27:46;;;;;;;37.73;21.10;;;;;;;;;;4433865;32;20221;-59
2020/12/01 01:30:18;;;;;;;38.37;22.77;;;;;;;;;;4434493;32;20291;-60
2020/12/01 01:32:43;;;;;;;40.80;19.60;;;;;;;;;;4449676;32;20597;-59
2020/12/01 01:35:09;;;;;;;40.13;23.33;;;;;;;;;;4444115;32;20291;-59
2020/12/01 01:37:34;;;;;;;47.37;25.37;;;;;;;;;;4449116;32;20212;-59
2020/12/01 01:40:00;;;;;;;43.63;21.83;;;;;;;;;;4443725;32;20304;-60
2020/12/01 01:42:26;;;;;;;35.53;20.50;;;;;;;;;;4435391;32;20276;-59
2020/12/01 01:44:51;;;;;;;51.23;23.90;;;;;;;;;;4432876;32;20313;-59
2020/12/01 01:47:26;;;;;;;48.83;24.57;;;;;;;;;;4433904;32;20279;-59
2020/12/01 01:50:16;;;;;;;52.90;26.03;;;;;;;;;;4432556;32;20281;-58
2020/12/01 01:52:44;;;;;;;59.37;30.60;;;;;;;;;;4418440;32;20600;-57
2020/12/01 01:55:17;;;;;;;63.60;32.43;;;;;;;;;;4433325;32;20221;-58
2020/12/01 01:57:47;;;;;;;60.53;28.60;;;;;;;;;;4439916;32;20382;-58
2020/12/01 02:00:56;;;;;;;50.30;23.47;;;;;;;;;;4434584;32;20346;-58
2020/12/01 02:03:31;;;;;;;41.80;21.57;;;;;;;;;;4445669;32;20259;-58
2020/12/01 02:05:57;;;;;;;39.30;22.57;;;;;;;;;;4439039;32;20400;-57
2020/12/01 02:08:23;;;;;;;33.17;19.97;;;;;;;;;;4438139;32;20289;-57
2020/12/01 02:10:51;;;;;;;36.40;21.50;;;;;;;;;;4436078;32;20350;-58
2020/12/01 02:13:24;;;;;;;30.37;17.50;;;;;;;;;;4432893;32;20307;-58
2020/12/01 02:15:50;;;;;;;25.87;16.50;;;;;;;;;;4431798;32;20662;-58
2020/12/01 02:18:25;;;;;;;32.77;19.97;;;;;;;;;;4432517;32;20280;-59
2020/12/01 02:20:51;;;;;;;37.37;19.57;;;;;;;;;;4432272;32;20286;-57
2020/12/01 02:23:16;;;;;;;34.37;20.13;;;;;;;;;;4432571;32;20766;-57
2020/12/01 02:25:42;;;;;;;33.67;20.63;;;;;;;;;;4431937;32;20256;-58
2020/12/01 02:28:07;;;;;;;38.73;22.80;;;;;;;;;;4432202;32;20334;-58
2020/12/01 02:30:33;;;;;;;33.23;17.57;;;;;;;;;;4436449;32;20274;-58
2020/12/01 02:32:58;;;;;;;29.20;18.63;;;;;;;;;;4448197;32;20303;-59
2020/12/01 02:35:23;;;;;;;30.73;18.87;;;;;;;;;;4417699;32;20260;-58
2020/12/01 02:37:49;;;;;;;31.30;18.90;;;;;;;;;;4433164;32;20260;-58
2020/12/01 02:40:17;;;;;;;33.93;19.93;;;;;;;;;;4434434;32;20304;-56
2020/12/01 02:42:43;;;;;;;30.93;18.93;;;;;;;;;;4438786;32;20216;-56
2020/12/01 02:45:08;;;;;;;24.40;15.47;;;;;;;;;;4431529;32;20877;-56
2020/12/01 02:47:34;;;;;;;23.47;14.87;;;;;;;;;;4432712;32;20295;-56
2020/12/01 02:49:59;;;;;;;29.77;17.90;;;;;;;;;;4432879;32;20350;-56
2020/12/01 02:52:25;;;;;;;31.53;17.90;;;;;;;;;;4432411;32;20682;-56
2020/12/01 02:54:51;;;;;;;33.90;18.70;;;;;;;;;;4432046;32;20217;-56
2020/12/01 02:57:17;;;;;;;32.50;18.97;;;;;;;;;;4432198;32;20750;-59
2020/12/01 02:59:43;;;;;;;35.93;16.70;;;;;;;;;;4432078;32;20283;-59
2020/12/01 03:02:08;;;;;;;27.23;17.20;;;;;;;;;;4431455;32;20398;-59
2020/12/01 03:04:33;;;;;;;33.53;19.37;;;;;;;;;;4432298;32;20287;-58
2020/12/01 03:06:59;;;;;;;31.83;19.17;;;;;;;;;;4418797;32;20607;-57
2020/12/01 03:09:24;;;;;;;37.00;20.27;;;;;;;;;;4432378;32;20295;-58
2020/12/01 03:11:50;;;;;;;44.60;22.97;;;;;;;;;;4433032;32;20767;-58
2020/12/01 03:14:17;;;;;;;39.23;22.90;;;;;;;;;;4431568;32;20421;-57
2020/12/01 03:16:42;;;;;;;35.63;19.73;;;;;;;;;;4443181;32;20523;-58
2020/12/01 03:19:08;;;;;;;31.47;17.93;;;;;;;;;;4435296;32;20292;-57
2020/12/01 03:21:33;;;;;;;32.03;19.00;;;;;;;;;;4436666;32;20240;-57
2020/12/01 03:23:59;;;;;;;32.60;18.83;;;;;;;;;;4431520;32;20366;-57
2020/12/01 03:26:24;;;;;;;42.00;23.60;;;;;;;;;;4441332;32;20550;-57
2020/12/01 03:28:50;;;;;;;43.60;25.17;;;;;;;;;;4447776;32;20601;-58
2020/12/01 03:31:17;;;;;;;45.60;22.03;;;;;;;;;;4442565;32;20294;-58
2020/12/01 03:33:43;;;;;;;33.93;20.77;;;;;;;;;;4432033;32;20569;-57
2020/12/01 03:36:09;;;;;;;26.63;17.37;;;;;;;;;;4431065;32;20257;-57
2020/12/01 03:38:35;;;;;;;35.33;19.37;;;;;;;;;;4432075;32;20325;-57
2020/12/01 03:41:00;;;;;;;33.67;19.63;;;;;;;;;;4438717;32;20273;-57
2020/12/01 03:43:26;;;;;;;37.50;22.37;;;;;;;;;;4420948;32;20380;-59
2020/12/01 03:45:51;;;;;;;36.63;19.90;;;;;;;;;;4436849;32;20578;-57
2020/12/01 03:48:17;;;;;;;39.63;24.00;;;;;;;;;;4447450;32;20227;-57
2020/12/01 03:50:43;;;;;;;47.67;23.83;;;;;;;;;;4442542;32;20297;-59
2020/12/01 03:53:08;;;;;;;42.43;24.50;;;;;;;;;;4431965;32;20284;-59
2020/12/01 03:55:34;;;;;;;38.77;22.40;;;;;;;;;;4434969;32;20224;-59
2020/12/01 03:58:00;;;;;;;39.67;22.60;;;;;;;;;;4447208;32;20634;-59
2020/12/01 04:00:28;;;;;;;54.70;29.10;;;;;;;;;;4442132;32;20251;-59
2020/12/01 04:02:54;;;;;;;40.33;24.67;;;;;;;;;;4447433;32;20200;-59
2020/12/01 04:05:21;;;;;;;46.07;25.83;;;;;;;;;;4438837;32;20328;-59
2020/12/01 04:07:48;;;;;;;45.97;25.00;;;;;;;;;;4431778;32;20213;-58
2020/12/01 04:10:16;;;;;;;43.13;23.80;;;;;;;;;;4433067;32;20264;-59
2020/12/01 04:12:42;;;;;;;43.57;24.37;;;;;;;;;;4433621;32;20669;-59
2020/12/01 04:15:07;;;;;;;57.43;33.30;;;;;;;;;;4417946;32;20389;-59
2020/12/01 04:17:33;;;;;;;48.30;28.70;;;;;;;;;;4431649;32;20527;-59
2020/12/01 04:19:58;;;;;;;55.13;31.07;;;;;;;;;;4427207;32;20271;-67
2020/12/01 04:22:24;;;;;;;53.53;29.50;;;;;;;;;;4438811;32;20300;-68
2020/12/01 04:24:49;;;;;;;56.67;33.83;;;;;;;;;;4430721;32;20286;-69
2020/12/01 04:27:16;;;;;;;48.60;29.27;;;;;;;;;;4437177;32;20289;-64
2020/12/01 04:29:42;;;;;;;49.30;25.67;;;;;;;;;;4430591;32;20690;-64
2020/12/01 04:32:08;;;;;;;42.27;25.00;;;;;;;;;;4439560;32;20637;-64
2020/12/01 04:34:34;;;;;;;44.00;25.80;;;;;;;;;;4431342;32;20217;-64
2020/12/01 04:37:01;;;;;;;71.43;38.17;;;;;;;;;;4441167;32;20224;-65
2020/12/01 04:39:28;;;;;;;79.87;41.43;;;;;;;;;;4431229;32;20221;-64
2020/12/01 04:41:54;;;;;;;80.80;46.50;;;;;;;;;;4436152;32;20267;-64
2020/12/01 04:44:40;;;;;;;86.90;46.43;;;;;;;;;;4431167;32;20720;-64
2020/12/01 04:47:14;;;;;;;93.87;56.60;;;;;;;;;;4432402;32;20680;-65
2020/12/01 04:49:45;;;;;;;91.03;51.30;;;;;;;;;;4433286;32;20233;-65
2020/12/01 04:52:51;;;;;;;89.83;48.03;;;;;;;;;;4449115;32;20317;-66
2020/12/01 04:55:43;;;;;;;98.67;54.97;;;;;;;;;;4438259;32;20248;-67
2020/12/01 04:58:33;;;;;;;106.10;56.43;;;;;;;;;;4447224;32;20324;-66
2020/12/01 05:01:07;;;;;;;71.13;40.73;;;;;;;;;;4440514;32;20330;-59
2020/12/01 05:03:57;;;;;;;63.87;34.37;;;;;;;;;;4445350;32;20284;-59
2020/12/01 05:06:39;;;;;;;58.60;33.60;;;;;;;;;;4441012;32;20557;-58
2020/12/01 05:09:14;;;;;;;55.13;30.47;;;;;;;;;;4441354;32;20626;-60
2020/12/01 05:11:50;;;;;;;65.23;36.73;;;;;;;;;;4443653;32;20702;-58
2020/12/01 05:14:23;;;;;;;68.27;34.13;;;;;;;;;;4433202;32;20251;-59
2020/12/01 05:17:19;;;;;;;61.37;33.23;;;;;;;;;;4431051;32;20376;-59
2020/12/01 05:19:47;;;;;;;65.87;34.83;;;;;;;;;;4428914;32;20633;-58
2020/12/01 05:22:18;;;;;;;66.10;39.10;;;;;;;;;;4448613;32;20213;-59
2020/12/01 05:24:45;;;;;;;66.63;41.17;;;;;;;;;;4439047;32;20356;-61
2020/12/01 05:27:32;;;;;;;84.33;45.87;;;;;;;;;;4436053;32;20224;-62
2020/12/01 05:30:11;;;;;;;119.43;63.57;;;;;;;;;;4433672;32;20247;-62
2020/12/01 05:32:40;;;;;;;115.57;58.40;;;;;;;;;;4434402;32;20243;-61
2020/12/01 05:35:23;;;;;;;136.30;65.60;;;;;;;;;;4433945;32;20224;-62
2020/12/01 05:37:53;;;;;;;104.87;55.67;;;;;;;;;;4448778;32;20320;-62
2020/12/01 05:40:19;;;;;;;85.00;45.03;;;;;;;;;;4438145;32;20227;-62
2020/12/01 05:42:46;;;;;;;85.67;45.53;;;;;;;;;;4434939;32;20743;-62
2020/12/01 05:45:38;;;;;;;78.50;44.63;;;;;;;;;;4434506;32;20511;-60
2020/12/01 05:48:31;;;;;;;122.23;57.47;;;;;;;;;;4417413;32;20240;-61
2020/12/01 05:51:11;;;;;;;102.57;47.73;;;;;;;;;;4434473;32;20245;-61
2020/12/01 05:53:36;;;;;;;108.07;50.53;;;;;;;;;;4433545;32;20669;-61
2020/12/01 05:56:22;;;;;;;106.17;52.43;;;;;;;;;;4437283;32;20217;-61
2020/12/01 05:58:56;;;;;;;101.50;49.00;;;;;;;;;;4432783;32;20253;-61
2020/12/01 06:01:22;;;;;;;110.00;56.40;;;;;;;;;;4433476;32;20605;-61
2020/12/01 06:04:06;;;;;;;105.80;53.43;;;;;;;;;;4433057;32;20351;-62
2020/12/01 06:07:01;;;;;;;117.23;56.90;;;;;;;;;;4432517;32;20438;-62
2020/12/01 06:09:44;;;;;;;152.73;79.90;;;;;;;;;;4398078;32;20213;-62
2020/12/01 06:12:31;;;;;;;156.30;74.27;;;;;;;;;;4433191;32;20229;-62
2020/12/01 06:15:01;;;;;;;179.93;79.03;;;;;;;;;;4433837;32;20220;-62
2020/12/01 06:17:40;;;;;;;166.23;76.63;;;;;;;;;;4442362;32;20208;-61
2020/12/01 06:20:26;;;;;;;143.43;65.87;;;;;;;;;;4432033;32;20338;-62
2020/12/01 06:23:15;;;;;;;132.93;65.73;;;;;;;;;;4432533;32;20258;-62
2020/12/01 06:26:03;;;;;;;132.90;71.80;;;;;;;;;;4432993;32;20258;-63
2020/12/01 06:28:49;;;;;;;127.27;78.37;;;;;;;;;;4420478;32;20318;-61
2020/12/01 06:31:27;;;;;;;116.57;66.93;;;;;;;;;;4432598;32;20677;-60
2020/12/01 06:34:25;;;;;;;99.23;50.37;;;;;;;;;;4431673;32;20326;-60
2020/12/01 06:36:59;;;;;;;102.53;55.23;;;;;;;;;;4393405;32;20255;-60
2020/12/01 06:39:45;;;;;;;98.23;53.93;;;;;;;;;;4437840;32;20795;-61
2020/12/01 06:42:21;;;;;;;118.73;56.80;;;;;;;;;;4432982;32;20236;-61
2020/12/01 06:44:54;;;;;;;142.93;71.03;;;;;;;;;;4432546;32;20220;-61
2020/12/01 06:47:26;;;;;;;107.20;59.53;;;;;;;;;;4432431;32;20209;-60
2020/12/01 06:49:59;;;;;;;109.87;61.60;;;;;;;;;;4434479;32;20220;-62
2020/12/01 06:52:25;;;;;;;91.33;54.50;;;;;;;;;;4431352;32;20729;-62
2020/12/01 06:54:55;;;;;;;103.43;56.83;;;;;;;;;;4436360;32;20412;-65
2020/12/01 06:57:29;;;;;;;103.73;60.97;;;;;;;;;;4440823;32;20242;-65
2020/12/01 06:59:55;;;;;;;132.67;68.73;;;;;;;;;;4433156;32;20486;-65
2020/12/01 07:02:20;;;;;;;143.50;78.63;;;;;;;;;;4437027;32;20294;-63
2020/12/01 07:04:45;;;;;;;135.13;72.73;;;;;;;;;;4437278;32;20391;-67
2020/12/01 07:07:33;;;;;;;142.23;78.50;;;;;;;;;;4438129;32;20284;-64
2020/12/01 07:09:59;;;;;;;111.20;66.93;;;;;;;;;;4434786;32;20342;-63
2020/12/01 07:12:24;;;;;;;110.10;64.70;;;;;;;;;;4439284;32;20594;-63
2020/12/01 07:15:27;;;;;;;147.97;80.83;;;;;;;;;;4438643;32;20325;-62
2020/12/01 07:17:55;;;;;;;162.87;90.13;;;;;;;;;;4416654;32;20252;-63
2020/12/01 07:20:40;;;;;;;154.43;89.40;;;;;;;;;;4431567;32;20296;-64
2020/12/01 07:23:22;;;;;;;152.97;90.00;;;;;;;;;;4432727;32;20628;-65
2020/12/01 07:26:19;;;;;;;165.90;88.23;;;;;;;;;;4431959;32;20228;-65
2020/12/01 07:28:47;;;;;;;135.50;74.23;;;;;;;;;;4431122;32;20237;-63
2020/12/01 07:31:31;;;;;;;145.00;81.23;;;;;;;;;;4427596;32;20680;-63
2020/12/01 07:34:06;;;;;;;134.53;74.67;;;;;;;;;;4431732;32;20592;-65
2020/12/01 07:36:35;;;;;;;121.00;70.77;;;;;;;;;;4431931;32;20231;-64
2020/12/01 07:39:18;;;;;;;103.27;58.77;;;;;;;;;;4431264;32;20283;-65
2020/12/01 07:42:04;;;;;;;90.07;49.50;;;;;;;;;;4430638;32;20221;-67
2020/12/01 07:44:41;;;;;;;93.90;51.93;;;;;;;;;;4428250;32;20352;-67
2020/12/01 07:47:18;;;;;;;88.97;53.17;;;;;;;;;;4429191;32;20216;-66
2020/12/01 07:49:54;;;;;;;89.33;53.40;;;;;;;;;;4431890;32;20734;-66
2020/12/01 07:52:35;;;;;;;109.07;58.13;;;;;;;;;;4402620;32;20343;-59
2020/12/01 07:55:07;;;;;;;104.77;57.00;;;;;;;;;;4416498;32;20274;-60
2020/12/01 07:57:33;;;;;;;79.90;47.33;;;;;;;;;;4430758;32;20251;-60
2020/12/01 07:59:59;;;;;;;72.00;44.23;;;;;;;;;;4419714;32;20293;-60
2020/12/01 08:02:28;;;;;;;68.73;40.30;;;;;;;;;;4431242;32;20220;-60
2020/12/01 08:05:06;;;;;;;67.67;40.03;;;;;;;;;;4431596;32;20213;-60
2020/12/01 08:07:32;;;;;;;70.00;42.83;;;;;;;;;;4432311;32;20321;-61
2020/12/01 08:10:12;;;;;;;82.73;43.43;;;;;;;;;;4429862;32;20217;-61
2020/12/01 08:12:47;;;;;;;71.50;39.13;;;;;;;;;;4413919;32;20312;-61
2020/12/01 08:15:20;;;;;;;81.57;43.00;;;;;;;;;;4428465;32;20216;-61
2020/12/01 08:17:45;;;;;;;66.40;38.80;;;;;;;;;;4432294;32;20432;-62
2020/12/01 08:20:17;;;;;;;70.43;40.53;;;;;;;;;;4436780;32;20228;-62
2020/12/01 08:22:53;;;;;;;64.03;39.03;;;;;;;;;;4440770;32;20300;-62
2020/12/01 08:25:23;;;;;;;62.97;37.97;;;;;;;;;;4435110;32;20323;-62
2020/12/01 08:28:23;;;;;;;63.30;40.37;;;;;;;;;;4432812;32;20347;-61
2020/12/01 08:31:12;;;;;;;75.87;47.00;;;;;;;;;;4433086;32;20397;-61
2020/12/01 08:33:47;;;;;;;137.20;73.90;;;;;;;;;;4434351;32;20264;-60
2020/12/01 08:36:25;;;;;;;415.93;206.60;;;;;;;;;;4434631;32;20240;-60
2020/12/01 08:39:15;;;;;;;170.20;103.07;;;;;;;;;;4434238;32;20670;-59
2020/12/01 08:41:44;;;;;;;119.80;75.27;;;;;;;;;;4434533;32;20252;-59
2020/12/01 08:44:38;;;;;;;110.37;60.43;;;;;;;;;;4429708;32;20213;-59
2020/12/01 08:47:04;;;;;;;84.87;47.57;;;;;;;;;;4434164;32;20236;-59
2020/12/01 08:49:41;;;;;;;73.77;47.03;;;;;;;;;;4433891;32;20229;-58
2020/12/01 08:52:35;;;;;;;101.37;58.53;;;;;;;;;;4422053;32;20650;-58
2020/12/01 08:55:27;;;;;;;97.03;55.23;;;;;;;;;;4433697;32;20357;-59
2020/12/01 08:58:16;;;;;;;77.17;48.27;;;;;;;;;;4434573;32;20693;-59
2020/12/01 09:01:02;;;;;;;77.47;47.90;;;;;;;;;;4434113;32;20243;-59
2020/12/01 09:03:30;;;;;;;63.97;39.53;;;;;;;;;;4433750;32;20209;-59
2020/12/01 09:05:56;;;;;;;54.77;32.47;;;;;;;;;;4433203;32;20329;-59
2020/12/01 09:14:10;;;;;;;80.90;37.57;;;;;;;;;;4420643;32;20359;-59
2020/12/01 09:17:01;;;;;;;59.57;37.33;;;;;;;;;;4433852;32;20272;-59
2020/12/01 09:22:23;;;;;;;54.17;32.03;;;;;;;;;;4434422;32;20239;-59
2020/12/01 09:24:50;;;;;;;52.53;29.53;;;;;;;;;;4432764;32;20330;-59
2020/12/01 09:27:18;;;;;;;56.23;35.00;;;;;;;;;;4433451;32;20568;-60
2020/12/01 09:29:49;;;;;;;46.37;27.23;;;;;;;;;;4432684;32;20296;-59
2020/12/01 09:32:21;;;;;;;48.57;29.50;;;;;;;;;;4430128;32;20569;-58
2020/12/01 09:34:48;;;;;;;39.17;23.50;;;;;;;;;;4409414;32;20279;-58
2020/12/01 09:37:13;;;;;;;44.97;23.93;;;;;;;;;;4432498;32;20493;-58
2020/12/01 09:39:39;;;;;;;37.43;23.20;;;;;;;;;;4432506;32;20284;-59
2020/12/01 09:47:47;;;;;;;45.37;26.50;;;;;;;;;;4433305;32;20269;-59
2020/12/01 09:50:24;;;;;;;42.90;24.17;;;;;;;;;;4436901;32;20293;-58
2020/12/01 10:08:17;;;;;;;27.00;15.80;;;;;;;;;;4432564;32;20280;-57
2020/12/01 10:16:47;;;;;;;22.13;15.60;;;;;;;;;;4432519;32;20325;-57
2020/12/01 10:35:33;;;;;;;38.60;21.27;;;;;;;;;;4431138;32;20250;-58
2020/12/01 10:38:00;;;;;;;26.23;17.93;;;;;;;;;;4423974;32;20745;-58
2020/12/01 10:40:27;;;;;;;29.77;19.37;;;;;;;;;;4433277;32;20244;-58
2020/12/01 10:42:53;;;;;;;34.60;20.47;;;;;;;;;;4419724;32;20611;-58
2020/12/01 10:45:20;;;;;;;30.03;18.53;;;;;;;;;;4431649;32;20307;-58
2020/12/01 10:47:45;;;;;;;41.60;21.90;;;;;;;;;;4425451;32;20205;-58
2020/12/01 10:50:12;;;;;;;33.03;21.37;;;;;;;;;;4431865;32;20288;-58
2020/12/01 10:52:38;;;;;;;32.90;18.47;;;;;;;;;;4420116;32;20240;-58
2020/12/01 10:55:05;;;;;;;31.63;19.17;;;;;;;;;;4431580;32;20216;-58
2020/12/01 10:57:31;;;;;;;32.47;18.50;;;;;;;;;;4426871;32;20221;-58
2020/12/01 10:59:56;;;;;;;38.47;22.57;;;;;;;;;;4430055;32;20284;-58
2020/12/01 11:02:22;;;;;;;102.77;43.67;;;;;;;;;;4421567;32;20233;-58
2020/12/01 11:04:47;;;;;;;34.07;21.17;;;;;;;;;;4429670;32;20819;-58
2020/12/01 11:07:13;;;;;;;50.00;28.00;;;;;;;;;;4429020;32;20302;-59
2020/12/01 11:09:38;;;;;;;33.47;20.57;;;;;;;;;;4427340;32;20406;-59
2020/12/01 11:12:04;;;;;;;51.97;26.13;;;;;;;;;;4431250;32;20251;-60
2020/12/01 11:14:29;;;;;;;118.77;59.07;;;;;;;;;;4431070;32;20326;-60
2020/12/01 11:16:54;;;;;;;312.03;131.07;;;;;;;;;;4430596;32;20264;-59
2020/12/01 11:19:20;;;;;;;108.60;57.20;;;;;;;;;;4429160;32;20287;-62
2020/12/01 11:21:45;;;;;;;177.97;85.87;;;;;;;;;;4431414;32;20250;-59
2020/12/01 11:24:11;;;;;;;52.57;31.97;;;;;;;;;;4430375;32;20322;-59
2020/12/01 11:26:36;;;;;;;80.23;47.53;;;;;;;;;;4421164;32;20301;-59
2020/12/01 11:29:02;;;;;;;42.63;25.70;;;;;;;;;;4432817;32;20772;-59
2020/12/01 11:31:28;;;;;;;51.90;27.73;;;;;;;;;;4417662;32;20307;-59
2020/12/01 11:34:13;;;;;;;119.93;76.43;;;;;;;;;;4431454;32;20288;-60
2020/12/01 11:36:39;;;;;;;34.27;22.30;;;;;;;;;;4430430;32;20776;-59
2020/12/01 11:39:07;;;;;;;31.80;18.33;;;;;;;;;;4416290;32;20705;-60
2020/12/01 11:41:33;;;;;;;29.47;18.93;;;;;;;;;;4430003;32;20293;-59
2020/12/01 11:43:58;;;;;;;74.70;36.30;;;;;;;;;;4432766;32;21113;-60
2020/12/01 11:46:24;;;;;;;53.53;29.80;;;;;;;;;;4431689;32;20339;-59
2020/12/01 11:48:50;;;;;;;42.17;25.03;;;;;;;;;;4431845;32;20237;-59
2020/12/01 11:51:16;;;;;;;31.23;18.93;;;;;;;;;;4430024;32;20389;-59
2020/12/01 11:53:41;;;;;;;30.57;18.83;;;;;;;;;;4430786;32;20367;-60
2020/12/01 11:56:08;;;;;;;29.37;20.40;;;;;;;;;;4432348;32;20420;-59
2020/12/01 11:58:34;;;;;;;27.13;17.23;;;;;;;;;;4425958;32;20213;-60
2020/12/01 12:00:59;;;;;;;44.03;30.67;;;;;;;;;;4434338;32;20229;-59
2020/12/01 12:03:25;;;;;;;20.43;14.37;;;;;;;;;;4434420;32;20402;-60
2020/12/01 12:05:50;;;;;;;47.03;28.13;;;;;;;;;;4433531;32;20280;-60
2020/12/01 12:08:16;;;;;;;49.83;27.37;;;;;;;;;;4435270;32;20292;-59
2020/12/01 12:10:42;;;;;;;51.40;31.90;;;;;;;;;;4433378;32;20229;-59
2020/12/01 12:13:08;;;;;;;39.93;24.73;;;;;;;;;;4434174;32;20531;-59
2020/12/01 12:15:33;;;;;;;26.07;17.50;;;;;;;;;;4433842;32;20267;-58
2020/12/01 12:17:59;;;;;;;32.00;19.50;;;;;;;;;;4433604;32;20590;-59
2020/12/01 12:20:24;;;;;;;31.80;18.50;;;;;;;;;;4434095;32;20607;-59
2020/12/01 12:22:50;;;;;;;27.60;16.80;;;;;;;;;;4437276;32;20334;-59
2020/12/01 12:25:15;;;;;;;25.07;15.20;;;;;;;;;;4433246;32;20315;-60
2020/12/01 12:27:41;;;;;;;38.03;20.17;;;;;;;;;;4433892;32;20209;-59
2020/12/01 12:30:07;;;;;;;26.93;17.43;;;;;;;;;;4434561;32;20243;-59
2020/12/01 12:32:32;;;;;;;39.70;23.27;;;;;;;;;;4427607;32;20266;-60
2020/12/01 12:34:58;;;;;;;24.60;15.40;;;;;;;;;;4433952;32;20232;-60
2020/12/01 12:37:24;;;;;;;27.30;17.63;;;;;;;;;;4433923;32;20220;-60
2020/12/01 12:39:49;;;;;;;32.17;18.27;;;;;;;;;;4433656;32;20697;-61
2020/12/01 12:42:15;;;;;;;44.53;23.07;;;;;;;;;;4434045;32;20285;-60
2020/12/01 12:44:40;;;;;;;40.67;22.33;;;;;;;;;;4433689;32;20660;-59
2020/12/01 12:47:06;;;;;;;29.03;18.37;;;;;;;;;;4434380;32;20200;-60
2020/12/01 12:49:31;;;;;;;67.80;35.17;;;;;;;;;;4433664;32;20221;-60
2020/12/01 12:51:57;;;;;;;21.57;14.73;;;;;;;;;;4433969;32;20228;-60
2020/12/01 12:54:23;;;;;;;666.10;296.73;;;;;;;;;;4433769;32;20310;-60
2020/12/01 12:56:49;;;;;;;58.57;36.17;;;;;;;;;;4433906;32;20327;-60
2020/12/01 12:59:14;;;;;;;68.47;34.07;;;;;;;;;;4433183;32;20358;-59
2020/12/01 13:01:40;;;;;;;85.63;38.33;;;;;;;;;;4432665;32;20353;-60
2020/12/01 13:04:05;;;;;;;207.13;74.63;;;;;;;;;;4433340;32;20292;-58
2020/12/01 13:06:31;;;;;;;59.00;28.37;;;;;;;;;;4433201;32;20363;-59
2020/12/01 13:08:56;;;;;;;24.67;15.27;;;;;;;;;;4431467;32;20276;-59
2020/12/01 13:11:22;;;;;;;36.03;19.87;;;;;;;;;;4433222;32;20252;-59
2020/12/01 13:13:47;;;;;;;27.43;15.43;;;;;;;;;;4433356;32;20314;-59
2020/12/01 13:16:14;;;;;;;61.90;25.27;;;;;;;;;;4433550;32;20301;-59
2020/12/01 13:18:41;;;;;;;200.47;70.93;;;;;;;;;;4430192;32;20244;-59
2020/12/01 13:21:06;;;;;;;82.53;39.00;;;;;;;;;;4432804;32;20287;-59
2020/12/01 13:23:32;;;;;;;66.70;28.50;;;;;;;;;;4417737;32;20300;-59
2020/12/01 13:25:58;;;;;;;29.60;17.97;;;;;;;;;;4432498;32;20267;-59
2020/12/01 13:28:23;;;;;;;30.50;14.77;;;;;;;;;;4432884;32;20326;-59
2020/12/01 13:30:48;;;;;;;33.33;16.70;;;;;;;;;;4433268;32;20256;-59
2020/12/01 13:33:14;;;;;;;40.57;17.30;;;;;;;;;;4433015;32;20367;-60
2020/12/01 13:35:40;;;;;;;24.37;14.27;;;;;;;;;;4432049;32;20268;-60
2020/12/01 13:38:06;;;;;;;60.20;26.83;;;;;;;;;;4433530;32;20273;-59
2020/12/01 13:40:32;;;;;;;24.03;14.60;;;;;;;;;;4431958;32;20244;-59
2020/12/01 13:42:57;;;;;;;37.27;18.03;;;;;;;;;;4423944;32;20355;-61
2020/12/01 13:45:23;;;;;;;36.93;17.03;;;;;;;;;;4425156;32;20646;-61
2020/12/01 13:47:48;;;;;;;65.83;35.83;;;;;;;;;;4420833;32;20292;-61
2020/12/01 13:50:20;;;;;;;338.03;188.00;;;;;;;;;;4422202;32;20204;-61
2020/12/01 13:52:46;;;;;;;71.27;40.37;;;;;;;;;;4427944;32;20287;-60
2020/12/01 13:55:12;;;;;;;27.67;16.07;;;;;;;;;;4432281;32;20380;-62
2020/12/01 13:57:38;;;;;;;32.27;17.60;;;;;;;;;;4432572;32;20252;-62
2020/12/01 14:00:09;;;;;;;27.43;13.83;;;;;;;;;;4434253;32;20303;-63
2020/12/01 14:02:34;;;;;;;20.13;13.83;;;;;;;;;;4425049;32;20249;-62
2020/12/01 14:05:00;;;;;;;34.83;16.67;;;;;;;;;;4434016;32;20328;-63
2020/12/01 14:07:25;;;;;;;137.93;62.20;;;;;;;;;;4423653;32;20303;-62
2020/12/01 14:09:50;;;;;;;42.50;23.53;;;;;;;;;;4424867;32;20304;-62
2020/12/01 14:12:16;;;;;;;204.80;97.13;;;;;;;;;;4419920;32;20320;-62
2020/12/01 14:14:41;;;;;;;94.57;48.80;;;;;;;;;;4431642;32;20291;-62
2020/12/01 14:17:07;;;;;;;30.43;18.97;;;;;;;;;;4416693;32;20249;-62
2020/12/01 14:19:32;;;;;;;33.90;18.50;;;;;;;;;;4428461;32;20332;-62
2020/12/01 14:21:59;;;;;;;420.83;179.13;;;;;;;;;;4418775;32;20571;-62
2020/12/01 14:24:25;;;;;;;204.13;96.17;;;;;;;;;;4413841;32;20216;-60
2020/12/01 14:26:50;;;;;;;107.37;57.73;;;;;;;;;;4420824;32;20274;-60
2020/12/01 14:29:16;;;;;;;101.67;56.77;;;;;;;;;;4432190;32;20314;-60
2020/12/01 14:31:41;;;;;;;107.67;59.60;;;;;;;;;;4432162;32;20637;-60
2020/12/01 14:34:07;;;;;;;105.07;57.53;;;;;;;;;;4432590;32;20276;-61
2020/12/01 14:36:38;;;;;;;126.07;59.73;;;;;;;;;;4422746;32;20331;-61
2020/12/01 14:39:13;;;;;;;111.57;56.73;;;;;;;;;;4430035;32;20255;-61
2020/12/01 14:41:38;;;;;;;132.63;64.73;;;;;;;;;;4431089;32;20378;-61
2020/12/01 14:44:19;;;;;;;108.23;56.03;;;;;;;;;;4431450;32;20312;-61
2020/12/01 14:47:16;;;;;;;107.27;54.53;;;;;;;;;;4428941;32;20321;-62
2020/12/01 14:50:05;;;;;;;134.97;61.20;;;;;;;;;;4439610;32;20323;-61
2020/12/01 14:52:48;;;;;;;104.47;56.67;;;;;;;;;;4439612;32;20224;-60
2020/12/01 14:55:23;;;;;;;83.43;47.13;;;;;;;;;;4431886;32;20741;-60
2020/12/01 14:58:25;;;;;;;72.93;41.00;;;;;;;;;;4422396;32;20323;-60
2020/12/01 15:01:08;;;;;;;75.87;39.27;;;;;;;;;;4430290;32;20271;-60
2020/12/01 15:03:39;;;;;;;64.03;37.73;;;;;;;;;;4430307;32;20236;-61
2020/12/01 15:06:21;;;;;;;69.27;39.73;;;;;;;;;;4430096;32;20316;-60
2020/12/01 15:08:56;;;;;;;65.93;38.83;;;;;;;;;;4430091;32;20558;-60
2020/12/01 15:11:21;;;;;;;68.20;36.43;;;;;;;;;;4429779;32;20220;-61
2020/12/01 15:13:46;;;;;;;57.57;36.13;;;;;;;;;;4430883;32;20321;-61
2020/12/01 15:16:26;;;;;;;69.93;37.33;;;;;;;;;;4428125;32;20241;-60
2020/12/01 15:18:54;;;;;;;57.50;34.70;;;;;;;;;;4430181;32;20289;-61
2020/12/01 15:21:43;;;;;;;62.00;34.67;;;;;;;;;;4428932;32;20350;-61
2020/12/01 15:24:15;;;;;;;58.30;35.07;;;;;;;;;;4430327;32;20326;-61